Time;durP1;ratioP1;P1;durP2;ratioP2;P2;SDS_P1;SDS_P2;PMS_P1;PMS_P2;Temp;Humidity;BMP_temperature;BMP_pressure;BME280_temperature;BME280_humidity;BME280_pressure;Samples;Min_cycle;Max_cycle;Signal;HPM_P1;HPM_P2
2023/12/13 00:02:20;;;;;;;5.67;2.40;;;8.80;32.70;;;;;;6222496;23;20182;-86
2023/12/13 00:04:45;;;;;;;5.40;2.00;;;8.90;41.60;;;;;;6223206;23;20540;-87
2023/12/13 00:07:11;;;;;;;4.53;2.17;;;8.90;49.00;;;;;;6222380;23;20174;-88
2023/12/13 00:09:38;;;;;;;10.20;2.10;;;9.00;53.30;;;;;;6223931;23;20149;-88
2023/12/13 00:12:04;;;;;;;2.20;1.93;;;9.00;52.80;;;;;;6222117;23;20224;-86
2023/12/13 00:14:29;;;;;;;3.30;1.80;;;9.10;54.90;;;;;;6221332;23;20756;-88
2023/12/13 00:16:55;;;;;;;3.57;1.80;;;9.10;58.00;;;;;;6222692;23;20404;-85
2023/12/13 00:19:20;;;;;;;7.50;2.30;;;9.20;55.00;;;;;;6223468;23;20350;-87
2023/12/13 00:21:46;;;;;;;4.93;1.63;;;9.20;54.20;;;;;;6222132;23;20146;-86
2023/12/13 00:24:12;;;;;;;3.90;1.93;;;9.20;52.90;;;;;;6223661;23;20500;-87
2023/12/13 00:26:38;;;;;;;8.20;2.30;;;9.30;51.20;;;;;;6221781;23;20159;-88
2023/12/13 00:29:04;;;;;;;6.10;2.23;;;9.30;47.20;;;;;;6221723;23;20528;-85
2023/12/13 00:31:30;;;;;;;13.30;2.23;;;9.30;44.10;;;;;;6222638;23;20150;-89
2023/12/13 00:33:56;;;;;;;6.60;1.90;;;9.30;41.90;;;;;;6221008;23;20431;-87
2023/12/13 00:36:21;;;;;;;8.20;2.43;;;9.30;40.50;;;;;;6221570;23;20153;-85
2023/12/13 00:38:47;;;;;;;6.23;1.93;;;9.30;38.70;;;;;;6223859;23;20204;-88
2023/12/13 00:41:13;;;;;;;11.00;2.10;;;9.30;33.40;;;;;;6224266;23;20146;-86
2023/12/13 00:43:38;;;;;;;5.27;1.93;;;9.30;36.40;;;;;;6224498;23;20397;-88
2023/12/13 00:46:05;;;;;;;8.37;2.73;;;9.30;34.10;;;;;;6223540;23;20146;-87
2023/12/13 00:48:32;;;;;;;4.70;2.03;;;9.40;37.00;;;;;;6223496;23;20154;-89
2023/12/13 00:50:57;;;;;;;9.07;2.43;;;9.30;33.80;;;;;;6222784;23;20399;-88
2023/12/13 00:53:23;;;;;;;8.20;2.60;;;9.30;36.10;;;;;;6225521;23;20413;-87
2023/12/13 00:55:51;;;;;;;10.63;2.10;;;9.30;35.20;;;;;;6222421;23;20182;-87
2023/12/13 00:58:17;;;;;;;7.90;4.73;;;9.30;33.10;;;;;;6223002;23;20235;-87
2023/12/13 01:00:43;;;;;;;10.97;2.80;;;9.30;32.50;;;;;;6224871;23;20378;-86
2023/12/13 01:03:08;;;;;;;12.20;2.23;;;9.30;34.00;;;;;;6223300;23;20405;-87
2023/12/13 01:05:34;;;;;;;10.37;2.80;;;9.20;34.90;;;;;;6223862;23;20537;-87
2023/12/13 01:07:59;;;;;;;12.07;3.90;;;9.20;33.40;;;;;;6225354;23;20207;-86
2023/12/13 01:10:25;;;;;;;10.80;2.93;;;9.20;36.40;;;;;;6224172;23;20189;-87
2023/12/13 01:12:51;;;;;;;7.27;3.10;;;9.20;37.00;;;;;;6226135;23;20248;-87
2023/12/13 01:15:16;;;;;;;10.70;2.80;;;9.20;36.80;;;;;;6226579;23;20186;-87
2023/12/13 01:17:42;;;;;;;5.30;2.73;;;9.20;39.50;;;;;;6226988;23;20151;-89
2023/12/13 01:20:09;;;;;;;14.60;2.63;;;9.20;37.40;;;;;;6225783;23;20147;-88
2023/12/13 01:22:35;;;;;;;9.20;3.60;;;9.20;35.30;;;;;;6225905;23;20193;-88
2023/12/13 01:25:01;;;;;;;7.93;3.00;;;9.20;36.80;;;;;;6225291;23;20377;-88
2023/12/13 01:27:27;;;;;;;5.60;2.67;;;9.20;40.40;;;;;;6225628;23;20758;-88
2023/12/13 01:29:52;;;;;;;18.20;2.60;;;9.30;39.20;;;;;;6227377;23;20378;-89
2023/12/13 01:32:18;;;;;;;12.10;2.90;;;9.30;36.40;;;;;;6224058;23;20178;-87
2023/12/13 01:34:43;;;;;;;6.90;2.13;;;9.30;35.70;;;;;;6225273;23;20185;-87
2023/12/13 01:37:09;;;;;;;9.90;2.43;;;9.30;32.60;;;;;;6226676;23;20146;-89
2023/12/13 01:39:34;;;;;;;4.23;2.50;;;9.30;30.00;;;;;;6227200;23;20151;-86
2023/12/13 01:42:00;;;;;;;8.63;3.23;;;9.30;30.30;;;;;;6226678;23;20258;-86
2023/12/13 01:44:25;;;;;;;5.13;2.20;;;9.30;31.30;;;;;;6226759;23;20150;-87
2023/12/13 01:46:51;;;;;;;9.40;2.60;;;9.40;34.30;;;;;;6226549;23;20154;-87
2023/12/13 01:49:17;;;;;;;8.83;2.73;;;9.40;35.50;;;;;;6226744;23;20151;-87
2023/12/13 01:51:44;;;;;;;7.93;3.07;;;9.40;37.00;;;;;;6225840;23;20177;-85
2023/12/13 01:54:14;;;;;;;13.17;2.57;;;9.50;36.90;;;;;;6225240;23;20456;-89
2023/12/13 01:56:43;;;;;;;8.57;2.60;;;9.50;34.60;;;;;;6226133;23;20377;-88
2023/12/13 01:59:09;;;;;;;6.33;2.00;;;9.50;34.00;;;;;;6225889;23;20461;-87
2023/12/13 02:01:36;;;;;;;4.97;2.10;;;9.50;33.30;;;;;;6225333;23;20384;-88
2023/12/13 02:04:02;;;;;;;8.00;2.27;;;9.50;32.20;;;;;;6224776;23;20420;-88
2023/12/13 02:06:28;;;;;;;8.23;2.33;;;9.50;32.40;;;;;;6225230;23;20536;-87
2023/12/13 02:08:53;;;;;;;8.40;3.00;;;9.50;30.40;;;;;;6226125;23;20377;-87
2023/12/13 02:11:19;;;;;;;9.63;3.00;;;9.60;29.50;;;;;;6226235;23;20546;-88
2023/12/13 02:13:45;;;;;;;8.40;3.10;;;9.60;29.70;;;;;;6225890;23;20711;-88
2023/12/13 02:16:10;;;;;;;12.93;3.53;;;9.60;27.90;;;;;;6225518;23;20232;-88
2023/12/13 02:18:36;;;;;;;5.93;2.60;;;9.60;26.60;;;;;;6225243;23;20674;-88
2023/12/13 02:21:02;;;;;;;17.90;3.17;;;9.60;25.60;;;;;;6226197;23;20147;-88
2023/12/13 02:23:27;;;;;;;10.03;2.97;;;9.60;25.70;;;;;;6225859;23;20166;-88
2023/12/13 02:25:58;;;;;;;12.63;2.90;;;9.60;25.70;;;;;;6224838;23;20396;-88
2023/12/13 02:28:24;;;;;;;15.13;3.07;;;9.70;24.50;;;;;;6226045;23;20193;-89
2023/12/13 02:30:52;;;;;;;9.80;3.30;;;9.70;22.80;;;;;;6225239;23;20377;-88
2023/12/13 02:33:17;;;;;;;8.97;2.83;;;9.70;21.90;;;;;;6223842;23;20416;-86
2023/12/13 02:35:43;;;;;;;12.10;3.40;;;9.70;18.70;;;;;;6225436;23;20432;-88
2023/12/13 02:38:09;;;;;;;9.07;3.00;;;9.70;18.10;;;;;;6224602;23;20154;-87
2023/12/13 02:40:34;;;;;;;9.67;2.70;;;9.80;16.70;;;;;;6225641;23;20202;-88
2023/12/13 02:43:00;;;;;;;9.33;3.20;;;9.80;12.40;;;;;;6225427;23;20174;-88
2023/12/13 02:45:25;;;;;;;11.37;4.43;;;9.80;10.70;;;;;;6224779;23;20173;-87
2023/12/13 02:47:52;;;;;;;9.20;3.30;;;9.80;10.60;;;;;;6223023;23;20158;-87
2023/12/13 02:50:18;;;;;;;11.37;2.80;;;9.80;10.90;;;;;;6225280;23;20232;-88
2023/12/13 02:52:44;;;;;;;6.30;3.80;;;9.80;11.60;;;;;;6225471;23;20791;-88
2023/12/13 02:55:10;;;;;;;12.23;2.77;;;9.80;11.40;;;;;;6226585;23;20417;-86
2023/12/13 02:57:36;;;;;;;9.50;2.73;;;9.80;12.80;;;;;;6225783;23;20237;-86
2023/12/13 03:00:03;;;;;;;9.10;2.50;;;9.80;14.60;;;;;;6224716;23;20154;-88
2023/12/13 03:02:29;;;;;;;20.77;2.70;;;9.80;15.00;;;;;;6226211;23;20389;-86
2023/12/13 03:04:55;;;;;;;8.73;2.50;;;9.90;14.20;;;;;;6224760;23;20404;-87
2023/12/13 03:07:22;;;;;;;7.80;2.80;;;9.90;14.20;;;;;;6223958;23;20447;-87
2023/12/13 03:09:47;;;;;;;8.90;3.07;;;9.90;13.40;;;;;;6225895;23;20165;-87
2023/12/13 03:12:13;;;;;;;11.83;3.67;;;9.80;10.30;;;;;;6224153;23;20707;-87
2023/12/13 03:14:38;;;;;;;12.60;3.17;;;9.90;13.60;;;;;;6224906;23;20253;-88
2023/12/13 03:17:04;;;;;;;11.23;2.30;;;9.90;12.40;;;;;;6224343;23;20209;-88
2023/12/13 03:19:30;;;;;;;7.33;2.30;;;9.90;12.40;;;;;;6221912;23;20141;-85
2023/12/13 03:21:55;;;;;;;8.90;2.60;;;9.90;11.20;;;;;;6221378;23;20147;-88
2023/12/13 03:24:23;;;;;;;14.00;2.93;;;9.80;12.90;;;;;;6221620;23;20176;-87
2023/12/13 03:26:48;;;;;;;12.63;2.73;;;9.90;10.80;;;;;;6223937;23;20154;-86
2023/12/13 03:29:14;;;;;;;11.27;2.77;;;9.90;12.70;;;;;;6222660;23;20431;-87
2023/12/13 03:31:40;;;;;;;8.50;2.90;;;9.90;14.70;;;;;;6223753;23;20154;-87
2023/12/13 03:34:05;;;;;;;9.63;2.77;;;9.90;17.80;;;;;;6220894;23;20209;-89
2023/12/13 03:36:31;;;;;;;6.50;2.57;;;9.80;21.30;;;;;;6222515;23;20176;-87
2023/12/13 03:38:56;;;;;;;17.97;3.23;;;9.80;26.30;;;;;;6222911;23;20154;-87
2023/12/13 03:41:23;;;;;;;9.00;3.70;;;9.80;28.20;;;;;;6220265;23;20397;-87
2023/12/13 03:43:49;;;;;;;16.73;3.70;;;9.80;30.00;;;;;;6219994;23;20189;-87
2023/12/13 03:46:14;;;;;;;10.27;3.53;;;9.80;31.60;;;;;;6220014;23;20392;-88
2023/12/13 03:48:40;;;;;;;7.43;2.93;;;9.80;32.30;;;;;;6222238;23;20242;-87
2023/12/13 03:51:05;;;;;;;10.17;3.73;;;9.80;35.30;;;;;;6222351;23;20219;-88
2023/12/13 03:53:31;;;;;;;8.50;3.57;;;9.80;37.50;;;;;;6223185;23;20166;-86
2023/12/13 03:55:57;;;;;;;14.07;3.30;;;9.80;38.20;;;;;;6223332;23;20181;-88
2023/12/13 03:58:23;;;;;;;16.50;3.27;;;9.80;39.10;;;;;;6222612;23;20401;-88
2023/12/13 04:00:48;;;;;;;10.40;3.40;;;9.80;41.50;;;;;;6224163;23;20732;-88
2023/12/13 04:03:14;;;;;;;12.37;3.20;;;9.80;43.00;;;;;;6224865;23;20166;-87
2023/12/13 04:05:39;;;;;;;14.77;4.20;;;9.80;46.00;;;;;;6225288;23;20154;-87
2023/12/13 04:08:06;;;;;;;26.53;5.20;;;9.80;46.40;;;;;;6224980;23;20158;-87
2023/12/13 04:10:32;;;;;;;18.50;4.10;;;9.80;47.70;;;;;;6227927;23;20154;-86
2023/12/13 04:12:57;;;;;;;16.43;4.00;;;9.80;53.30;;;;;;6224808;23;20744;-87
2023/12/13 04:15:23;;;;;;;10.53;4.07;;;9.80;56.80;;;;;;6226095;23;20189;-88
2023/12/13 04:17:48;;;;;;;12.20;5.60;;;9.80;59.20;;;;;;6226879;23;20225;-87
2023/12/13 04:20:14;;;;;;;13.07;3.80;;;9.80;62.80;;;;;;6224999;23;20215;-87
2023/12/13 04:22:39;;;;;;;8.33;3.20;;;9.80;67.30;;;;;;6225332;23;20166;-89
2023/12/13 04:25:05;;;;;;;8.73;3.10;;;9.80;65.80;;;;;;6224925;23;20549;-88
2023/12/13 04:27:31;;;;;;;18.77;3.97;;;9.70;65.80;;;;;;6226520;23;20226;-87
2023/12/13 04:29:56;;;;;;;11.63;3.30;;;9.70;65.00;;;;;;6225299;23;20358;-88
2023/12/13 04:32:22;;;;;;;18.03;3.57;;;9.70;67.90;;;;;;6225495;23;20170;-87
2023/12/13 04:34:47;;;;;;;13.50;3.30;;;9.80;69.70;;;;;;6223191;23;20193;-87
2023/12/13 04:37:13;;;;;;;15.37;3.60;;;9.70;69.70;;;;;;6224268;23;20155;-86
2023/12/13 04:39:39;;;;;;;10.40;3.50;;;9.80;68.40;;;;;;6226207;23;20162;-85
2023/12/13 04:42:04;;;;;;;9.10;3.50;;;9.70;68.60;;;;;;6224335;23;20495;-86
2023/12/13 04:44:30;;;;;;;15.50;3.03;;;9.80;70.00;;;;;;6223762;23;20511;-87
2023/12/13 04:46:59;;;;;;;8.60;3.20;;;9.80;70.40;;;;;;6223703;23;20162;-88
2023/12/13 04:49:25;;;;;;;17.53;3.47;;;9.80;69.90;;;;;;6224560;23;20746;-88
2023/12/13 04:51:51;;;;;;;13.50;3.40;;;9.80;68.80;;;;;;6224086;23;20374;-86
2023/12/13 04:54:16;;;;;;;18.73;4.13;;;9.80;63.60;;;;;;6223731;23;20436;-88
2023/12/13 04:56:43;;;;;;;17.20;3.50;;;9.80;62.00;;;;;;6222656;23;20163;-88
2023/12/13 04:59:08;;;;;;;11.13;2.80;;;9.80;63.00;;;;;;6223855;23;20154;-86
2023/12/13 05:01:34;;;;;;;8.07;3.20;;;9.80;61.50;;;;;;6223323;23;20460;-87
2023/12/13 05:03:59;;;;;;;14.30;3.50;;;9.80;59.40;;;;;;6222144;23;20217;-88
2023/12/13 05:06:25;;;;;;;11.20;3.00;;;9.70;59.50;;;;;;6223185;23;20177;-86
2023/12/13 05:08:51;;;;;;;7.50;3.70;;;9.70;59.00;;;;;;6223737;23;20154;-87
2023/12/13 05:11:16;;;;;;;18.77;3.43;;;9.70;56.70;;;;;;6222108;23;20591;-87
2023/12/13 05:13:41;;;;;;;12.53;3.60;;;9.70;53.20;;;;;;6220961;23;20170;-88
2023/12/13 05:16:08;;;;;;;12.90;3.47;;;9.70;53.10;;;;;;6224121;23;20150;-88
2023/12/13 05:18:33;;;;;;;10.43;3.17;;;9.70;52.30;;;;;;6223059;23;20150;-87
2023/12/13 05:21:01;;;;;;;13.73;3.10;;;9.70;53.30;;;;;;6223846;23;20852;-88
2023/12/13 05:23:27;;;;;;;13.60;5.07;;;9.70;55.90;;;;;;6222779;23;20229;-86
2023/12/13 05:25:52;;;;;;;11.43;2.83;;;9.70;56.20;;;;;;6224139;23;20388;-89
2023/12/13 05:28:18;;;;;;;17.17;3.93;;;9.70;56.80;;;;;;6224108;23;20621;-88
2023/12/13 05:30:43;;;;;;;13.33;3.70;;;9.70;56.40;;;;;;6223398;23;20229;-87
2023/12/13 05:33:09;;;;;;;13.00;3.67;;;9.70;53.90;;;;;;6223689;23;20541;-87
2023/12/13 05:35:35;;;;;;;16.13;2.50;;;9.70;49.60;;;;;;6223839;23;20499;-88
2023/12/13 05:38:01;;;;;;;9.40;3.43;;;9.80;47.40;;;;;;6223270;23;20754;-88
2023/12/13 05:40:26;;;;;;;12.07;3.20;;;9.80;46.40;;;;;;6222465;23;20381;-88
2023/12/13 05:42:52;;;;;;;11.77;3.10;;;9.80;42.70;;;;;;6221805;23;20320;-87
2023/12/13 05:45:18;;;;;;;21.93;3.90;;;9.70;38.50;;;;;;6220095;23;20169;-88
2023/12/13 05:47:43;;;;;;;16.43;4.13;;;9.80;36.20;;;;;;6222153;23;20917;-88
2023/12/13 05:50:09;;;;;;;21.37;5.60;;;9.80;35.40;;;;;;6220050;23;20369;-88
2023/12/13 05:52:36;;;;;;;9.47;3.50;;;9.80;32.00;;;;;;6220823;23;20202;-86
2023/12/13 05:55:02;;;;;;;13.73;5.07;;;9.70;30.00;;;;;;6221418;23;20181;-88
2023/12/13 05:57:28;;;;;;;15.40;3.13;;;9.70;26.00;;;;;;6221308;23;20400;-87
2023/12/13 05:59:53;;;;;;;12.87;4.07;;;9.70;26.60;;;;;;6219842;23;20724;-87
2023/12/13 06:02:19;;;;;;;10.50;2.67;;;9.60;24.30;;;;;;6221409;23;20178;-87
2023/12/13 06:04:44;;;;;;;8.60;4.00;;;9.60;19.90;;;;;;6222481;23;20178;-88
2023/12/13 06:07:10;;;;;;;8.43;2.77;;;9.60;20.10;;;;;;6220446;23;20344;-87
2023/12/13 06:09:36;;;;;;;11.20;3.13;;;9.60;20.80;;;;;;6221562;23;20547;-87
2023/12/13 06:12:03;;;;;;;12.93;3.00;;;9.60;21.50;;;;;;6222345;23;20161;-87
2023/12/13 06:14:29;;;;;;;10.23;2.60;;;9.60;20.80;;;;;;6221258;23;20197;-88
2023/12/13 06:16:55;;;;;;;9.97;3.57;;;9.60;19.30;;;;;;6221737;23;20377;-87
2023/12/13 06:19:21;;;;;;;13.00;3.10;;;9.60;21.30;;;;;;6221128;23;20409;-87
2023/12/13 06:21:47;;;;;;;12.27;2.97;;;9.60;17.60;;;;;;6214651;23;20381;-88
2023/12/13 06:24:12;;;;;;;9.07;3.80;;;9.60;18.40;;;;;;6221322;23;20408;-87
2023/12/13 06:26:38;;;;;;;7.73;2.67;;;9.60;17.00;;;;;;6224411;23;20672;-87
2023/12/13 06:29:04;;;;;;;10.83;3.53;;;9.60;16.90;;;;;;6222520;23;20178;-87
2023/12/13 06:31:29;;;;;;;9.07;4.00;;;9.70;15.60;;;;;;6222379;23;20408;-88
2023/12/13 06:33:56;;;;;;;10.07;3.20;;;9.70;14.50;;;;;;6224528;23;20170;-88
2023/12/13 06:36:21;;;;;;;13.50;3.53;;;9.70;13.90;;;;;;6223998;23;20156;-87
2023/12/13 06:38:47;;;;;;;10.13;3.10;;;9.70;14.80;;;;;;6224479;23;20370;-85
2023/12/13 06:41:13;;;;;;;13.80;3.90;;;9.60;12.40;;;;;;6219948;23;20219;-87
2023/12/13 06:43:38;;;;;;;11.93;3.87;;;9.70;12.40;;;;;;6222654;23;20166;-87
2023/12/13 06:46:04;;;;;;;10.33;3.90;;;9.70;11.40;;;;;;6225525;23;20164;-87
2023/12/13 06:48:30;;;;;;;20.87;3.80;;;9.70;8.50;;;;;;6224334;23;20580;-88
2023/12/13 06:50:55;;;;;;;9.93;3.00;;;9.70;5.40;;;;;;6223548;23;20165;-87
2023/12/13 06:53:21;;;;;;;7.73;3.00;;;9.70;1.00;;;;;;6224517;23;20173;-86
2023/12/13 06:55:47;;;;;;;10.93;3.43;;;9.70;1.00;;;;;;6223583;23;20181;-87
2023/12/13 06:58:13;;;;;;;16.07;3.63;;;9.70;1.00;;;;;;6225940;23;20377;-87
2023/12/13 07:00:39;;;;;;;12.90;3.23;;;9.70;1.00;;;;;;6224554;23;20150;-86
2023/12/13 07:03:04;;;;;;;23.87;3.60;;;9.70;1.00;;;;;;6223798;23;20423;-86
2023/12/13 07:05:30;;;;;;;10.97;2.30;;;9.70;1.00;;;;;;6220101;23;20182;-85
2023/12/13 07:07:55;;;;;;;16.90;2.70;;;9.70;1.00;;;;;;6216948;23;20192;-87
2023/12/13 07:10:26;;;;;;;7.87;1.87;;;9.70;1.00;;;;;;6219564;23;20196;-84
2023/12/13 07:12:52;;;;;;;13.13;3.20;;;9.70;1.00;;;;;;6219766;23;20182;-86
2023/12/13 07:15:17;;;;;;;10.30;4.30;;;9.70;1.00;;;;;;6219408;23;20451;-86
2023/12/13 07:17:43;;;;;;;6.00;3.07;;;9.70;1.00;;;;;;6219383;23;20158;-86
2023/12/13 07:20:10;;;;;;;10.13;2.60;;;9.70;1.00;;;;;;6217222;23;20213;-85
2023/12/13 07:22:36;;;;;;;10.53;3.10;;;9.70;1.00;;;;;;6217552;23;20202;-87
2023/12/13 07:25:02;;;;;;;9.87;3.27;;;9.70;1.00;;;;;;6209790;23;20385;-89
2023/12/13 07:27:28;;;;;;;15.83;2.77;;;9.70;1.00;;;;;;6209461;23;20451;-89
2023/12/13 07:29:53;;;;;;;7.20;2.40;;;9.70;1.00;;;;;;6210483;23;20825;-86
2023/12/13 07:32:19;;;;;;;15.47;2.93;;;9.70;1.00;;;;;;6209371;23;20312;-85
2023/12/13 07:34:44;;;;;;;9.43;2.73;;;9.70;1.00;;;;;;6211930;23;20235;-85
2023/12/13 07:37:13;;;;;;;12.93;2.93;;;9.70;1.00;;;;;;6208066;23;20778;-86
2023/12/13 07:39:38;;;;;;;7.40;2.30;;;9.70;1.00;;;;;;6209084;23;20603;-86
2023/12/13 07:42:04;;;;;;;7.33;2.70;;;9.70;1.00;;;;;;6207622;23;20384;-88
2023/12/13 07:44:33;;;;;;;7.77;2.43;;;9.70;1.00;;;;;;6209243;23;20384;-86
2023/12/13 07:47:02;;;;;;;10.20;2.70;;;9.70;1.00;;;;;;6213123;23;20150;-85
2023/12/13 07:49:28;;;;;;;10.60;2.80;;;9.70;1.00;;;;;;6211551;23;20476;-88
2023/12/13 07:51:54;;;;;;;7.17;2.70;;;9.70;1.00;;;;;;6211060;23;20400;-87
2023/12/13 07:54:25;;;;;;;14.53;3.00;;;9.70;1.00;;;;;;6210975;23;20469;-88
2023/12/13 07:56:52;;;;;;;13.27;3.43;;;9.70;1.00;;;;;;6211395;23;20408;-84
2023/12/13 07:59:18;;;;;;;11.10;2.37;;;9.70;1.00;;;;;;6211143;23;20391;-85
2023/12/13 08:01:43;;;;;;;12.17;2.10;;;9.70;1.00;;;;;;6214026;23;20369;-87
2023/12/13 08:04:09;;;;;;;7.63;2.73;;;9.70;1.00;;;;;;6211465;23;20448;-85
2023/12/13 08:06:35;;;;;;;9.43;2.33;;;9.80;1.00;;;;;;6215297;23;20154;-86
2023/12/13 08:09:02;;;;;;;9.30;2.87;;;9.80;1.00;;;;;;6212217;23;20159;-86
2023/12/13 08:11:28;;;;;;;12.07;2.70;;;9.80;1.00;;;;;;6211684;23;20238;-87
2023/12/13 08:13:53;;;;;;;13.03;3.07;;;9.80;1.00;;;;;;6212812;23;20430;-87
2023/12/13 08:16:19;;;;;;;12.80;3.10;;;9.90;1.00;;;;;;6212059;23;20154;-85
2023/12/13 08:18:44;;;;;;;6.47;3.20;;;9.90;1.00;;;;;;6212724;23;20205;-87
2023/12/13 08:21:10;;;;;;;7.67;2.80;;;9.90;1.00;;;;;;6210581;23;20169;-86
2023/12/13 08:23:35;;;;;;;11.20;3.17;;;9.90;1.00;;;;;;6213006;23;20170;-86
2023/12/13 08:26:01;;;;;;;6.20;2.40;;;10.00;1.00;;;;;;6212016;23;20160;-85
2023/12/13 08:28:27;;;;;;;11.07;2.47;;;10.00;1.00;;;;;;6210746;23;20174;-87
2023/12/13 08:30:52;;;;;;;10.47;2.70;;;10.00;1.00;;;;;;6210443;23;20162;-87
2023/12/13 08:33:18;;;;;;;8.50;2.20;;;10.00;1.00;;;;;;6211442;23;20181;-87
2023/12/13 08:35:43;;;;;;;10.20;3.00;;;10.10;1.00;;;;;;6211884;23;20205;-85
2023/12/13 08:38:09;;;;;;;9.20;2.40;;;10.20;1.00;;;;;;6210100;23;20221;-84
2023/12/13 08:40:34;;;;;;;9.33;2.63;;;10.20;1.00;;;;;;6212246;23;20224;-85
2023/12/13 08:43:02;;;;;;;6.17;2.53;;;10.30;1.00;;;;;;6211331;23;20174;-86
2023/12/13 08:45:31;;;;;;;9.43;2.53;;;10.30;1.00;;;;;;6213438;23;20146;-86
2023/12/13 08:47:59;;;;;;;7.47;2.60;;;10.40;1.00;;;;;;6212509;23;20424;-86
2023/12/13 08:50:27;;;;;;;8.43;2.53;;;10.50;1.00;;;;;;6212474;23;20412;-86
2023/12/13 08:52:55;;;;;;;9.33;2.73;;;10.80;1.00;;;;;;6210301;23;20439;-86
2023/12/13 08:55:20;;;;;;;9.13;2.10;;;11.10;1.00;;;;;;6213552;23;20428;-86
2023/12/13 08:57:46;;;;;;;9.30;2.53;;;11.30;1.00;;;;;;6210604;23;20913;-85
2023/12/13 09:00:12;;;;;;;7.77;2.10;;;11.50;1.00;;;;;;6212712;23;20529;-88
2023/12/13 09:02:38;;;;;;;12.80;3.47;;;11.90;1.00;;;;;;6218608;23;20205;-85
2023/12/13 09:05:04;;;;;;;16.17;3.07;;;12.20;99.90;;;;;;6220911;23;20694;-85
2023/12/13 09:07:30;;;;;;;10.53;2.30;;;12.20;99.90;;;;;;6222095;23;20154;-84
2023/12/13 09:09:55;;;;;;;8.50;2.90;;;12.10;1.00;;;;;;6221892;23;20381;-88
2023/12/13 09:12:21;;;;;;;7.73;2.23;;;12.00;1.00;;;;;;6224292;23;20170;-84
2023/12/13 09:14:46;;;;;;;11.10;2.50;;;11.80;99.90;;;;;;6223803;23;20185;-84
2023/12/13 09:17:12;;;;;;;6.33;2.00;;;11.70;99.90;;;;;;6222107;23;20146;-83
2023/12/13 09:19:37;;;;;;;11.67;2.60;;;11.50;99.90;;;;;;6219869;23;20150;-85
2023/12/13 09:22:03;;;;;;;10.43;2.33;;;11.50;99.90;;;;;;6219869;23;20149;-86
2023/12/13 09:24:29;;;;;;;5.80;2.10;;;11.60;99.90;;;;;;6216979;23;20162;-86
2023/12/13 09:26:55;;;;;;;12.03;2.70;;;11.80;99.90;;;;;;6216958;23;20385;-84
2023/12/13 09:29:21;;;;;;;6.13;2.70;;;11.90;99.90;;;;;;6214296;23;20397;-85
2023/12/13 09:31:49;;;;;;;18.20;6.27;;;12.10;99.90;;;;;;6212697;23;20158;-86
2023/12/13 09:34:15;;;;;;;7.53;2.77;;;12.20;1.00;;;;;;6213998;23;20429;-85
2023/12/13 09:36:41;;;;;;;14.83;3.50;;;12.30;1.00;;;;;;6213881;23;20377;-86
2023/12/13 09:39:07;;;;;;;13.77;2.63;;;12.30;1.00;;;;;;6211124;23;20269;-85
2023/12/13 09:41:54;;;;;;;8.17;2.17;;;12.40;1.00;;;;;;6215760;23;20408;-84
2023/12/13 09:44:22;;;;;;;7.70;2.40;;;12.50;99.90;;;;;;6216675;23;20177;-86
2023/12/13 09:46:49;;;;;;;7.03;2.10;;;12.40;99.90;;;;;;6213611;23;20389;-86
2023/12/13 09:49:15;;;;;;;12.57;2.70;;;12.30;99.90;;;;;;6216041;23;20381;-85
2023/12/13 09:51:44;;;;;;;4.30;1.80;;;12.20;1.00;;;;;;6214381;23;20378;-86
2023/12/13 09:54:10;;;;;;;9.40;2.47;;;12.10;99.90;;;;;;6212842;23;20420;-87
2023/12/13 09:56:35;;;;;;;11.83;2.67;;;12.10;99.90;;;;;;6211907;23;20380;-86
2023/12/13 09:59:01;;;;;;;7.27;2.70;;;12.00;1.00;;;;;;6210880;23;20381;-84
2023/12/13 10:01:26;;;;;;;12.50;2.90;;;11.90;1.00;;;;;;6213949;23;20157;-85
2023/12/13 10:03:52;;;;;;;11.80;2.20;;;11.90;99.90;;;;;;6213430;23;20170;-85
2023/12/13 10:06:18;;;;;;;7.73;2.17;;;11.80;99.90;;;;;;6213644;23;20532;-85
2023/12/13 10:08:53;;;;;;;10.83;2.83;;;11.90;1.00;;;;;;6215312;23;20174;-87
2023/12/13 10:11:18;;;;;;;7.80;1.97;;;11.90;99.90;;;;;;6213852;23;20861;-86
2023/12/13 10:13:44;;;;;;;10.93;3.30;;;11.90;1.00;;;;;;6216215;23;20412;-84
2023/12/13 10:16:11;;;;;;;10.43;2.40;;;11.80;1.00;;;;;;6214857;23;20190;-85
2023/12/13 10:18:37;;;;;;;6.20;2.23;;;11.80;1.00;;;;;;6212707;23;20154;-85
2023/12/13 10:21:03;;;;;;;8.87;2.40;;;11.80;1.00;;;;;;6215326;23;20716;-87
2023/12/13 10:23:29;;;;;;;10.83;2.30;;;11.80;1.00;;;;;;6214759;23;20390;-85
2023/12/13 10:25:55;;;;;;;6.40;2.60;;;11.90;43.90;;;;;;6214796;23;20412;-85
2023/12/13 10:28:21;;;;;;;8.90;2.40;;;11.90;21.40;;;;;;6215699;23;20405;-84
2023/12/13 10:30:49;;;;;;;11.67;2.80;;;11.90;55.50;;;;;;6215280;23;20165;-87
2023/12/13 10:33:15;;;;;;;10.87;3.83;;;11.90;10.90;;;;;;6214990;23;20405;-85
2023/12/13 10:35:41;;;;;;;10.30;3.33;;;12.00;32.20;;;;;;6215489;23;20599;-86
2023/12/13 10:38:10;;;;;;;11.60;3.03;;;12.10;1.00;;;;;;6213051;23;20150;-86
2023/12/13 10:40:35;;;;;;;11.23;3.40;;;12.10;1.00;;;;;;6211448;23;20384;-87
2023/12/13 10:43:04;;;;;;;10.87;2.90;;;12.20;1.00;;;;;;6207325;23;20401;-83
2023/12/13 10:45:30;;;;;;;9.00;2.63;;;12.30;1.00;;;;;;6213008;23;20162;-86
2023/12/13 10:48:00;;;;;;;11.17;2.93;;;12.60;99.90;;;;;;6215036;23;20377;-84
2023/12/13 10:50:26;;;;;;;8.50;2.70;;;12.90;99.90;;;;;;6214341;23;21015;-86
2023/12/13 10:52:54;;;;;;;10.30;2.50;;;13.10;1.00;;;;;;6215319;23;20492;-85
2023/12/13 10:55:20;;;;;;;11.00;2.53;;;13.30;99.90;;;;;;6225556;23;20433;-86
2023/12/13 10:57:47;;;;;;;16.93;2.20;;;13.30;1.00;;;;;;6236069;23;20405;-85
2023/12/13 11:00:14;;;;;;;11.27;2.90;;;13.20;99.90;;;;;;6236162;23;20385;-87
2023/12/13 11:02:55;;;;;;;6.00;2.53;;;13.20;1.00;;;;;;6235605;23;20389;-86
2023/12/13 11:05:21;;;;;;;12.23;2.40;;;13.20;1.00;;;;;;6235720;23;20389;-86
2023/12/13 11:07:47;;;;;;;7.77;2.10;;;13.30;99.90;;;;;;6220020;23;20869;-88
2023/12/13 11:10:14;;;;;;;6.73;2.10;;;13.30;99.90;;;;;;6219716;23;20385;-88
2023/12/13 11:12:50;;;;;;;12.80;3.13;;;13.20;99.90;;;;;;6219739;23;20174;-86
2023/12/13 11:15:17;;;;;;;7.63;2.10;;;13.10;1.00;;;;;;6220042;23;20723;-86
2023/12/13 11:17:49;;;;;;;10.70;2.13;;;13.00;99.90;;;;;;6220546;23;20774;-86
2023/12/13 11:20:15;;;;;;;12.17;2.03;;;13.00;99.90;;;;;;6217489;23;20373;-85
2023/12/13 11:22:48;;;;;;;7.33;2.17;;;13.10;99.90;;;;;;6216791;23;20401;-85
2023/12/13 11:25:14;;;;;;;9.23;2.27;;;13.30;1.00;;;;;;6217716;23;20230;-86
2023/12/13 11:27:54;;;;;;;6.60;1.67;;;13.30;1.00;;;;;;6218331;23;20401;-86
2023/12/13 11:30:31;;;;;;;7.30;1.60;;;13.40;1.00;;;;;;6217116;23;20404;-85
2023/12/13 11:32:59;;;;;;;6.20;1.77;;;13.40;82.00;;;;;;6217682;23;20412;-85
2023/12/13 11:35:30;;;;;;;6.37;1.93;;;13.50;2.50;;;;;;6221487;23;20905;-84
2023/12/13 11:38:07;;;;;;;9.30;2.20;;;13.60;1.00;;;;;;6219092;23;20354;-85
2023/12/13 11:40:39;;;;;;;4.87;1.87;;;13.70;1.00;;;;;;6218585;23;20699;-85
2023/12/13 11:43:37;;;;;;;5.67;1.90;;;13.80;99.90;;;;;;6220182;22;20457;-85
2023/12/13 11:46:03;;;;;;;9.13;2.10;;;13.90;99.90;;;;;;6223397;23;21074;-85
2023/12/13 11:48:28;;;;;;;7.17;2.00;;;14.10;99.90;;;;;;6223007;23;20369;-83
2023/12/13 11:50:55;;;;;;;3.90;1.40;;;14.60;99.90;;;;;;6223728;23;20157;-85
2023/12/13 11:53:20;;;;;;;10.97;2.33;;;14.60;30.80;;;;;;6221766;23;20170;-85
2023/12/13 11:55:46;;;;;;;9.70;1.93;;;14.60;55.20;;;;;;6220566;23;20499;-84
2023/12/13 11:58:14;;;;;;;10.37;2.33;;;14.50;1.00;;;;;;6221581;23;20565;-86
2023/12/13 12:00:44;;;;;;;9.50;2.13;;;14.30;1.00;;;;;;6220478;23;20150;-85
2023/12/13 12:03:10;;;;;;;9.23;2.37;;;14.20;1.00;;;;;;6221618;23;20381;-86
2023/12/13 12:05:36;;;;;;;7.83;1.87;;;14.10;4.60;;;;;;6221010;23;20392;-84
2023/12/13 12:08:06;;;;;;;8.63;2.10;;;14.00;15.20;;;;;;6220408;23;20339;-85
2023/12/13 12:10:32;;;;;;;8.73;1.83;;;14.20;32.30;;;;;;6221434;23;20560;-84
2023/12/13 12:13:03;;;;;;;5.40;1.60;;;14.90;19.00;;;;;;6222652;23;20428;-86
2023/12/13 12:15:30;;;;;;;6.87;1.80;;;15.50;1.00;;;;;;6222049;23;20413;-84
2023/12/13 12:17:55;;;;;;;11.13;2.13;;;15.60;1.00;;;;;;6219893;23;20385;-83
2023/12/13 12:20:21;;;;;;;8.93;2.70;;;15.80;1.00;;;;;;6217427;23;20468;-87
2023/12/13 12:22:47;;;;;;;10.30;2.47;;;16.00;1.00;;;;;;6216923;23;20180;-86
2023/12/13 12:25:13;;;;;;;5.00;1.60;;;15.70;1.00;;;;;;6220028;23;20373;-86
2023/12/13 12:27:50;;;;;;;4.17;1.63;;;15.40;1.00;;;;;;6218675;23;20243;-85
2023/12/13 12:30:18;;;;;;;8.40;1.80;;;15.20;1.00;;;;;;6218066;23;20138;-84
2023/12/13 12:32:44;;;;;;;8.13;1.60;;;15.10;1.00;;;;;;6221080;23;20409;-86
2023/12/13 12:35:09;;;;;;;10.80;2.10;;;15.10;1.00;;;;;;6223408;23;20409;-86
2023/12/13 12:37:35;;;;;;;13.40;2.30;;;14.90;1.00;;;;;;6222227;23;20436;-85
2023/12/13 12:40:03;;;;;;;8.73;2.10;;;14.80;1.00;;;;;;6221480;23;20158;-85
2023/12/13 12:42:28;;;;;;;6.60;1.67;;;14.80;1.00;;;;;;6222568;23;20415;-86
2023/12/13 12:44:54;;;;;;;6.57;2.63;;;14.80;1.00;;;;;;6223136;23;20456;-87
2023/12/13 12:47:19;;;;;;;8.53;2.20;;;14.80;1.00;;;;;;6218605;23;20154;-83
2023/12/13 12:49:47;;;;;;;5.57;2.03;;;14.90;1.00;;;;;;6219903;23;20162;-86